createdAt,value
2023-05-05T00:00:47.132Z,12.69
2023-05-05T00:03:53.530Z,12.60
2023-05-05T00:06:56.243Z,12.50
2023-05-05T00:09:59.196Z,12.43
2023-05-05T00:13:01.803Z,12.38
2023-05-05T00:16:04.984Z,12.35
2023-05-05T00:19:07.610Z,12.32
2023-05-05T00:22:10.982Z,12.36
2023-05-05T00:25:13.590Z,12.33
2023-05-05T00:28:16.491Z,12.31
2023-05-05T00:31:19.219Z,12.30
2023-05-05T00:34:22.713Z,12.25
2023-05-05T00:37:25.289Z,12.18
2023-05-05T00:40:28.389Z,12.07
2023-05-05T00:43:31.324Z,11.97
2023-05-05T00:46:35.554Z,11.85
2023-05-05T00:49:39.508Z,11.77
2023-05-05T00:52:42.500Z,11.72
2023-05-05T00:55:45.030Z,11.64
2023-05-05T00:58:49.100Z,11.55
2023-05-05T01:01:52.070Z,11.46
2023-05-05T01:04:56.131Z,11.44
2023-05-05T01:08:36.040Z,11.43
2023-05-05T01:11:43.118Z,11.59
2023-05-05T01:14:53.181Z,11.51
2023-05-05T01:18:09.820Z,11.50
2023-05-05T01:21:19.187Z,11.45
2023-05-05T01:24:43.548Z,11.37
2023-05-05T01:28:20.639Z,11.32
2023-05-05T01:32:01.420Z,11.26
2023-05-05T01:35:13.685Z,11.19
2023-05-05T01:38:21.745Z,11.16
2023-05-05T01:41:29.830Z,11.10
2023-05-05T01:44:36.981Z,11.01
2023-05-05T01:47:40.991Z,11.02
2023-05-05T01:50:46.667Z,10.95
2023-05-05T01:53:52.581Z,10.94
2023-05-05T01:56:59.148Z,10.87
2023-05-05T02:00:04.070Z,10.94
2023-05-05T02:03:19.280Z,10.91
2023-05-05T02:06:24.155Z,10.97
2023-05-05T02:09:29.471Z,10.94
2023-05-05T02:12:35.235Z,10.88
2023-05-05T02:15:39.360Z,10.96
2023-05-05T02:18:43.142Z,10.90
2023-05-05T02:21:45.868Z,10.82
2023-05-05T02:24:50.989Z,10.82
2023-05-05T02:27:58.839Z,10.78
2023-05-05T02:31:05.725Z,10.71
2023-05-05T02:34:09.225Z,10.59
2023-05-05T02:37:18.061Z,10.50
2023-05-05T02:40:26.421Z,10.38
2023-05-05T02:43:33.102Z,10.36
2023-05-05T02:46:38.901Z,10.31
2023-05-05T02:49:42.983Z,10.37
2023-05-05T02:52:46.031Z,10.41
2023-05-05T02:56:02.155Z,10.33
2023-05-05T02:59:16.067Z,10.43
2023-05-05T03:02:33.994Z,10.31
2023-05-05T03:05:45.816Z,10.17
2023-05-05T03:09:23.951Z,10.17
2023-05-05T03:12:34.686Z,10.08
2023-05-05T03:15:44.623Z,9.95
2023-05-05T03:18:51.128Z,9.85
2023-05-05T03:21:54.686Z,9.79
2023-05-05T03:24:57.358Z,9.80
2023-05-05T03:28:00.485Z,9.80
2023-05-05T03:31:04.128Z,9.77
2023-05-05T03:34:08.338Z,9.69
2023-05-05T03:37:11.880Z,9.64
2023-05-05T03:40:15.455Z,9.65
2023-05-05T03:43:19.601Z,9.65
2023-05-05T03:46:23.047Z,9.64
2023-05-05T03:49:25.902Z,9.65
2023-05-05T03:52:29.186Z,9.62
2023-05-05T03:55:32.013Z,9.66
2023-05-05T03:58:34.975Z,9.73
2023-05-05T04:01:37.708Z,9.76
2023-05-05T04:04:41.028Z,9.83
2023-05-05T04:07:43.659Z,9.90
2023-05-05T04:10:46.773Z,10.02
2023-05-05T04:13:50.132Z,10.17
2023-05-05T04:16:53.406Z,10.19
2023-05-05T04:19:57.124Z,10.27
2023-05-05T04:23:00.209Z,10.33
2023-05-05T04:26:03.210Z,10.43
2023-05-05T04:29:06.798Z,10.49
2023-05-05T04:32:09.600Z,10.52
2023-05-05T04:35:13.026Z,10.53
2023-05-05T04:38:16.170Z,10.62
2023-05-05T04:41:19.664Z,10.64
2023-05-05T04:44:22.324Z,10.67
2023-05-05T04:47:25.513Z,10.81
2023-05-05T04:50:28.174Z,10.91
2023-05-05T04:53:31.952Z,10.98
2023-05-05T04:56:34.819Z,11.15
2023-05-05T04:59:37.744Z,11.14
2023-05-05T05:02:41.580Z,11.19
2023-05-05T05:05:44.777Z,11.23
2023-05-05T05:08:47.378Z,11.22
2023-05-05T05:11:50.447Z,11.35
2023-05-05T05:14:53.231Z,11.47
2023-05-05T05:17:56.188Z,11.60
2023-05-05T05:20:59.675Z,11.77
2023-05-05T05:24:02.903Z,12.02
2023-05-05T05:27:09.769Z,12.18
2023-05-05T05:30:13.636Z,12.50
2023-05-05T05:33:16.510Z,12.75
2023-05-05T05:36:19.814Z,12.74
2023-05-05T05:39:22.532Z,12.86
2023-05-05T05:42:26.281Z,13.11
2023-05-05T05:45:29.184Z,13.22
2023-05-05T05:48:32.395Z,13.32
2023-05-05T05:51:35.681Z,13.59
2023-05-05T05:54:38.642Z,13.74
2023-05-05T05:57:43.872Z,13.84
2023-05-05T06:00:48.970Z,14.10
2023-05-05T06:03:52.063Z,14.13
2023-05-05T06:06:56.135Z,14.26
2023-05-05T06:10:04.865Z,14.56
2023-05-05T06:13:14.376Z,14.55
2023-05-05T06:16:17.661Z,14.52
2023-05-05T06:19:21.489Z,14.67
2023-05-05T06:22:24.796Z,14.79
2023-05-05T06:25:27.763Z,14.79
2023-05-05T06:28:30.809Z,14.73
2023-05-05T06:31:33.431Z,14.89
2023-05-05T06:34:36.570Z,14.99
2023-05-05T06:37:39.569Z,15.17
2023-05-05T06:40:42.617Z,15.46
2023-05-05T06:43:45.262Z,15.62
2023-05-05T06:46:48.662Z,15.84
2023-05-05T06:49:51.208Z,16.14
2023-05-05T06:52:54.103Z,16.15
2023-05-05T06:55:56.799Z,16.23
2023-05-05T06:58:59.610Z,16.36
2023-05-05T07:02:02.790Z,16.47
2023-05-05T07:05:06.055Z,16.63
2023-05-05T07:08:09.128Z,16.99
2023-05-05T07:11:12.014Z,16.98
2023-05-05T07:14:14.886Z,17.01
2023-05-05T07:17:18.029Z,17.12
2023-05-05T07:20:20.786Z,17.12
2023-05-05T07:23:23.639Z,17.03
2023-05-05T07:26:26.612Z,17.20
2023-05-05T07:29:29.568Z,17.18
2023-05-05T07:32:32.674Z,17.28
2023-05-05T07:35:35.610Z,17.27
2023-05-05T07:38:38.303Z,17.40
2023-05-05T07:41:42.569Z,17.45
2023-05-05T07:44:45.442Z,17.47
2023-05-05T07:47:48.657Z,17.64
2023-05-05T07:50:52.549Z,17.80
2023-05-05T07:53:57.041Z,17.78
2023-05-05T07:56:59.867Z,17.98
2023-05-05T08:00:03.247Z,17.97
2023-05-05T08:03:24.525Z,18.05
2023-05-05T08:06:28.852Z,18.36
2023-05-05T08:09:31.505Z,18.60
2023-05-05T08:12:36.000Z,18.45
2023-05-05T08:15:38.878Z,18.58
2023-05-05T08:18:43.036Z,18.91
2023-05-05T08:21:45.634Z,18.85
2023-05-05T08:24:49.018Z,18.92
2023-05-05T08:27:54.944Z,18.85
2023-05-05T08:30:58.934Z,18.76
2023-05-05T08:34:02.623Z,18.82
2023-05-05T08:37:05.536Z,18.85
2023-05-05T08:40:11.179Z,19.03
2023-05-05T08:43:14.226Z,18.98
2023-05-05T08:46:17.312Z,19.02
2023-05-05T08:49:21.880Z,18.99
2023-05-05T08:52:28.886Z,18.95
2023-05-05T08:55:35.388Z,19.33
2023-05-05T08:58:38.697Z,19.37
2023-05-05T09:01:42.989Z,19.26
2023-05-05T09:04:46.220Z,19.15
2023-05-05T09:07:50.336Z,19.47
2023-05-05T09:10:54.404Z,19.30
2023-05-05T09:13:57.305Z,19.26
2023-05-05T09:17:00.313Z,19.40
2023-05-05T09:20:04.916Z,19.31
2023-05-05T09:23:15.504Z,19.51
2023-05-05T09:26:18.638Z,19.79
2023-05-05T09:29:22.704Z,19.40
2023-05-05T09:32:26.570Z,19.59
2023-05-05T09:35:48.658Z,19.70
2023-05-05T09:39:18.937Z,19.76
2023-05-05T09:42:21.664Z,19.84
2023-05-05T09:45:27.598Z,19.50
2023-05-05T09:48:31.926Z,19.85
2023-05-05T09:51:35.035Z,20.34
2023-05-05T09:54:37.594Z,20.56
2023-05-05T09:57:40.518Z,20.47
2023-05-05T10:00:43.212Z,20.41
2023-05-05T10:03:52.413Z,20.40
2023-05-05T10:06:58.926Z,20.57
2023-05-05T10:10:04.030Z,20.82
2023-05-05T10:13:06.874Z,20.94
2023-05-05T10:16:13.257Z,21.13
2023-05-05T10:19:28.596Z,20.95
2023-05-05T10:22:34.875Z,21.34
2023-05-05T10:25:46.594Z,20.98
2023-05-05T10:28:49.419Z,20.63
2023-05-05T10:31:54.242Z,20.99
2023-05-05T10:35:04.310Z,21.13
2023-05-05T10:38:12.688Z,21.52
2023-05-05T10:41:18.505Z,22.00
2023-05-05T10:44:23.203Z,21.90
2023-05-05T10:47:28.180Z,22.14
2023-05-05T10:50:34.620Z,22.09
2023-05-05T10:54:20.303Z,22.32
2023-05-05T10:57:27.102Z,21.92
2023-05-05T11:00:39.557Z,22.02
2023-05-05T11:03:42.406Z,22.29
2023-05-05T11:07:14.418Z,22.53
2023-05-05T11:10:20.646Z,22.79
2023-05-05T11:13:24.234Z,23.01
2023-05-05T11:16:47.832Z,22.99
2023-05-05T11:19:52.310Z,22.75
2023-05-05T11:23:03.850Z,22.64
2023-05-05T11:26:06.830Z,22.37
2023-05-05T11:29:09.511Z,22.14
2023-05-05T11:32:14.002Z,22.36
2023-05-05T11:35:16.661Z,22.20
2023-05-05T11:38:26.122Z,22.62
2023-05-05T11:41:34.264Z,23.09
2023-05-05T11:44:37.736Z,23.18
2023-05-05T11:47:40.440Z,23.39
2023-05-05T11:50:43.710Z,23.40
2023-05-05T11:53:48.374Z,23.68
2023-05-05T11:56:56.724Z,23.27
2023-05-05T12:00:04.132Z,23.39
2023-05-05T12:03:08.129Z,23.11
2023-05-05T12:06:11.211Z,22.99
2023-05-05T12:09:18.760Z,22.82
2023-05-05T12:12:22.208Z,22.93
2023-05-05T12:15:32.203Z,22.78
2023-05-05T12:18:35.363Z,23.14
2023-05-05T12:21:38.434Z,23.17
2023-05-05T12:24:41.754Z,23.52
2023-05-05T12:27:53.115Z,23.88
2023-05-05T12:31:00.122Z,24.02
2023-05-05T12:34:03.925Z,23.93
2023-05-05T12:37:06.994Z,23.60
2023-05-05T12:40:48.717Z,23.38
2023-05-05T12:43:58.428Z,23.33
2023-05-05T12:47:01.635Z,23.47
2023-05-05T12:50:04.957Z,23.69
2023-05-05T12:53:07.651Z,23.52
2023-05-05T12:56:38.534Z,23.98
2023-05-05T12:59:41.495Z,24.40
2023-05-05T13:02:44.546Z,24.22
2023-05-05T13:05:47.208Z,24.31
2023-05-05T13:08:50.745Z,24.50
2023-05-05T13:11:54.806Z,24.63
2023-05-05T13:14:57.692Z,24.46
2023-05-05T13:18:01.232Z,24.68
2023-05-05T13:21:04.445Z,24.67
2023-05-05T13:24:19.116Z,24.60
2023-05-05T13:27:26.327Z,24.50
2023-05-05T13:30:28.996Z,24.36
2023-05-05T13:33:35.347Z,24.50
2023-05-05T13:36:38.064Z,24.59
2023-05-05T13:39:41.002Z,24.56
2023-05-05T13:42:44.118Z,24.85
2023-05-05T13:45:47.397Z,25.30
2023-05-05T13:48:52.492Z,25.20
2023-05-05T13:51:59.300Z,25.05
2023-05-05T13:55:01.952Z,24.95
2023-05-05T13:58:04.891Z,24.92
2023-05-05T14:01:07.694Z,24.97
2023-05-05T14:04:10.795Z,25.21
2023-05-05T14:07:13.370Z,25.30
2023-05-05T14:10:16.419Z,25.31
2023-05-05T14:13:19.303Z,25.30
2023-05-05T14:16:22.254Z,25.31
2023-05-05T14:19:24.884Z,25.28
2023-05-05T14:22:27.769Z,25.14
2023-05-05T14:25:30.458Z,25.35
2023-05-05T14:28:33.421Z,25.49
2023-05-05T14:31:36.751Z,25.77
2023-05-05T14:34:39.784Z,26.06
2023-05-05T14:37:42.380Z,26.29
2023-05-05T14:40:45.364Z,26.54
2023-05-05T14:43:47.934Z,26.59
2023-05-05T14:46:51.249Z,26.55
2023-05-05T14:49:53.928Z,27.07
2023-05-05T14:52:56.831Z,27.50
2023-05-05T14:56:01.286Z,27.37
2023-05-05T14:59:04.093Z,27.77
2023-05-05T15:02:07.109Z,28.77
2023-05-05T15:05:10.492Z,29.00
2023-05-05T15:08:14.589Z,30.37
2023-05-05T15:11:17.531Z,32.22
2023-05-05T15:14:20.036Z,33.74
2023-05-05T15:17:22.965Z,33.76
2023-05-05T15:20:25.643Z,31.65
2023-05-05T15:23:28.560Z,32.54
2023-05-05T15:26:31.278Z,32.62
2023-05-05T15:29:34.612Z,33.06
2023-05-05T15:32:37.367Z,34.37
2023-05-05T15:35:40.280Z,34.88
2023-05-05T15:38:43.405Z,35.63
2023-05-05T15:41:46.882Z,36.43
2023-05-05T15:44:49.882Z,37.15
2023-05-05T15:47:54.027Z,36.10
2023-05-05T15:50:56.861Z,35.83
2023-05-05T15:54:00.355Z,35.26
2023-05-05T15:57:03.266Z,35.60
2023-05-05T16:00:16.516Z,35.87
2023-05-05T16:03:19.451Z,35.69
2023-05-05T16:06:22.188Z,35.70
2023-05-05T16:09:25.340Z,35.76
2023-05-05T16:12:27.885Z,35.64
2023-05-05T16:15:30.860Z,34.54
2023-05-05T16:18:33.580Z,32.73
2023-05-05T16:21:36.575Z,31.25
2023-05-05T16:24:39.467Z,29.90
2023-05-05T16:27:42.355Z,28.64
2023-05-05T16:30:44.965Z,27.72
2023-05-05T16:33:47.859Z,26.36
2023-05-05T16:36:50.430Z,25.66
2023-05-05T16:39:53.280Z,24.90
2023-05-05T16:42:55.909Z,24.81
2023-05-05T16:45:59.033Z,24.55
2023-05-05T16:49:01.591Z,24.09
2023-05-05T16:52:04.776Z,23.92
2023-05-05T16:55:07.961Z,23.45
2023-05-05T16:58:11.155Z,23.30
2023-05-05T17:01:13.887Z,23.05
2023-05-05T17:04:18.416Z,22.98
2023-05-05T17:07:21.441Z,22.78
2023-05-05T17:10:24.361Z,22.59
2023-05-05T17:13:26.919Z,22.35
2023-05-05T17:16:29.929Z,22.23
2023-05-05T17:19:32.617Z,21.97
2023-05-05T17:22:36.302Z,21.74
2023-05-05T17:25:38.930Z,21.52
2023-05-05T17:28:41.964Z,21.46
2023-05-05T17:31:44.625Z,21.27
2023-05-05T17:34:48.519Z,21.06
2023-05-05T17:37:53.301Z,20.85
2023-05-05T17:40:56.232Z,20.60
2023-05-05T17:43:59.620Z,20.41
2023-05-05T17:47:04.029Z,20.19
2023-05-05T17:50:07.302Z,20.04
2023-05-05T17:53:10.751Z,19.80
2023-05-05T17:56:13.521Z,19.61
2023-05-05T17:59:16.700Z,19.43
2023-05-05T18:02:19.719Z,19.27
2023-05-05T18:05:22.730Z,19.15
2023-05-05T18:08:25.629Z,19.00
2023-05-05T18:11:30.622Z,18.92
2023-05-05T18:14:33.579Z,18.86
2023-05-05T18:17:36.426Z,18.77
2023-05-05T18:20:39.187Z,18.65
2023-05-05T18:23:42.201Z,18.53
2023-05-05T18:26:48.865Z,18.49
2023-05-05T18:29:52.127Z,18.29
2023-05-05T18:32:54.750Z,18.13
2023-05-05T18:35:57.949Z,17.96
2023-05-05T18:39:00.714Z,17.82
2023-05-05T18:42:03.993Z,17.69
2023-05-05T18:45:07.892Z,17.57
2023-05-05T18:48:11.698Z,17.47
2023-05-05T18:51:14.351Z,17.38
2023-05-05T18:54:17.201Z,17.27
2023-05-05T18:57:19.790Z,17.23
2023-05-05T19:00:22.773Z,17.23
2023-05-05T19:03:25.802Z,17.12
2023-05-05T19:06:28.709Z,17.03
2023-05-05T19:09:31.391Z,16.92
2023-05-05T19:12:34.956Z,16.87
2023-05-05T19:15:38.121Z,16.88
2023-05-05T19:18:41.254Z,16.83
2023-05-05T19:21:44.093Z,16.74
2023-05-05T19:24:47.359Z,16.65
2023-05-05T19:27:50.004Z,16.60
2023-05-05T19:30:52.912Z,16.52
2023-05-05T19:34:03.506Z,16.47
2023-05-05T19:37:06.397Z,16.51
2023-05-05T19:40:09.599Z,16.40
2023-05-05T19:43:12.829Z,16.27
2023-05-05T19:46:15.775Z,16.11
2023-05-05T19:49:18.867Z,16.01
2023-05-05T19:52:22.724Z,15.89
2023-05-05T19:55:26.010Z,15.80
2023-05-05T19:58:29.079Z,15.71
2023-05-05T20:01:35.885Z,15.63
2023-05-05T20:04:38.870Z,15.54
2023-05-05T20:07:44.611Z,15.46
2023-05-05T20:10:47.654Z,15.41
2023-05-05T20:13:50.878Z,15.30
2023-05-05T20:16:53.876Z,15.22
2023-05-05T20:19:57.681Z,15.13
2023-05-05T20:23:00.806Z,15.05
2023-05-05T20:26:03.739Z,15.15
2023-05-05T20:29:06.906Z,15.17
2023-05-05T20:32:09.688Z,15.19
2023-05-05T20:35:13.058Z,15.07
2023-05-05T20:38:15.662Z,15.27
2023-05-05T20:41:18.570Z,15.04
2023-05-05T20:44:21.287Z,14.87
2023-05-05T20:47:24.284Z,14.72
2023-05-05T20:50:27.266Z,14.65
2023-05-05T20:53:30.369Z,14.59
2023-05-05T20:56:32.998Z,14.47
2023-05-05T20:59:36.011Z,14.36
2023-05-05T21:02:38.791Z,14.26
2023-05-05T21:05:41.991Z,14.20
2023-05-05T21:08:45.628Z,14.13
2023-05-05T21:11:48.968Z,14.04
2023-05-05T21:14:52.770Z,13.93
2023-05-05T21:17:57.067Z,13.87
2023-05-05T21:20:59.831Z,13.82
2023-05-05T21:24:03.399Z,13.73
2023-05-05T21:27:06.817Z,13.65
2023-05-05T21:30:11.449Z,13.64
2023-05-05T21:33:14.164Z,13.61
2023-05-05T21:36:19.181Z,13.55
2023-05-05T21:39:21.754Z,13.51
2023-05-05T21:42:24.671Z,13.46
2023-05-05T21:45:27.394Z,13.43
2023-05-05T21:48:33.486Z,13.40
2023-05-05T21:51:37.299Z,13.38
2023-05-05T21:54:40.847Z,13.34
2023-05-05T21:57:43.490Z,13.29
2023-05-05T22:00:49.507Z,13.25
2023-05-05T22:03:52.586Z,13.29
2023-05-05T22:06:55.372Z,13.24
2023-05-05T22:09:58.279Z,13.22
2023-05-05T22:13:00.935Z,13.17
2023-05-05T22:16:03.868Z,13.11
2023-05-05T22:19:06.862Z,13.05
2023-05-05T22:22:09.643Z,12.97
2023-05-05T22:25:12.373Z,12.91
2023-05-05T22:28:15.266Z,12.84
2023-05-05T22:31:18.072Z,12.92
2023-05-05T22:34:21.987Z,12.90
2023-05-05T22:37:24.845Z,12.83
2023-05-05T22:40:27.895Z,12.74
2023-05-05T22:43:30.785Z,12.67
2023-05-05T22:46:33.641Z,12.66
2023-05-05T22:49:36.265Z,12.74
2023-05-05T22:52:39.329Z,12.71
2023-05-05T22:55:41.925Z,12.65
2023-05-05T22:58:46.589Z,12.55
2023-05-05T23:01:49.386Z,12.51
2023-05-05T23:04:55.878Z,12.38
2023-05-05T23:08:01.154Z,12.35
2023-05-05T23:11:04.142Z,12.26
2023-05-05T23:14:06.772Z,12.24
2023-05-05T23:17:09.855Z,12.16
2023-05-05T23:20:13.248Z,12.11
2023-05-05T23:23:16.190Z,12.04
2023-05-05T23:26:18.866Z,12.05
2023-05-05T23:29:22.327Z,12.03
2023-05-05T23:32:25.093Z,12.07
2023-05-05T23:35:27.968Z,12.05
2023-05-05T23:38:30.562Z,11.96
2023-05-05T23:41:33.540Z,11.93
2023-05-05T23:44:36.700Z,11.89
2023-05-05T23:47:40.006Z,11.84
2023-05-05T23:50:42.987Z,11.80
2023-05-05T23:53:45.920Z,11.77
2023-05-05T23:56:48.677Z,11.72
2023-05-05T23:59:51.556Z,11.75
